createdAt,value
2023-03-03T00:00:26.418Z,-1.17
2023-03-03T00:01:26.406Z,-1.25
2023-03-03T00:02:26.426Z,-1.40
2023-03-03T00:03:26.461Z,-1.33
2023-03-03T00:04:26.346Z,-1.39
2023-03-03T00:05:26.321Z,-1.36
2023-03-03T00:06:26.300Z,-1.38
2023-03-03T00:07:26.286Z,-1.42
2023-03-03T00:08:26.261Z,-1.36
2023-03-03T00:09:26.240Z,-1.51
2023-03-03T00:10:26.216Z,-1.42
2023-03-03T00:11:26.204Z,-1.45
2023-03-03T00:12:26.185Z,-1.50
2023-03-03T00:13:26.160Z,-1.45
2023-03-03T00:14:26.153Z,-1.53
2023-03-03T00:15:26.127Z,-1.53
2023-03-03T00:16:26.217Z,-1.53
2023-03-03T00:17:26.093Z,-1.50
2023-03-03T00:18:26.060Z,-1.57
2023-03-03T00:19:26.038Z,-1.60
2023-03-03T00:20:26.024Z,-1.53
2023-03-03T00:21:25.997Z,-1.61
2023-03-03T00:22:25.979Z,-1.61
2023-03-03T00:23:25.956Z,-1.58
2023-03-03T00:24:25.940Z,-1.64
2023-03-03T00:25:25.916Z,-1.69
2023-03-03T00:26:25.901Z,-1.56
2023-03-03T00:27:25.886Z,-1.53
2023-03-03T00:28:25.871Z,-1.57
2023-03-03T00:29:25.840Z,-1.56
2023-03-03T00:30:25.826Z,-1.61
2023-03-03T00:31:25.806Z,-1.54
2023-03-03T00:32:25.882Z,-1.56
2023-03-03T00:33:25.768Z,-1.60
2023-03-03T00:34:25.742Z,-1.60
2023-03-03T00:35:25.777Z,-1.57
2023-03-03T00:36:25.702Z,-1.63
2023-03-03T00:37:25.676Z,-1.53
2023-03-03T00:38:25.666Z,-1.46
2023-03-03T00:39:25.642Z,-1.50
2023-03-03T00:40:25.617Z,-1.46
2023-03-03T00:41:25.602Z,-1.50
2023-03-03T00:42:25.580Z,-1.53
2023-03-03T00:43:25.560Z,-1.50
2023-03-03T00:44:25.541Z,-1.57
2023-03-03T00:45:25.525Z,-1.57
2023-03-03T00:46:25.520Z,-1.68
2023-03-03T00:47:25.476Z,-1.68
2023-03-03T00:48:25.455Z,-1.60
2023-03-03T00:49:25.444Z,-1.66
2023-03-03T00:50:25.422Z,-1.71
2023-03-03T00:51:25.406Z,-1.68
2023-03-03T00:52:25.388Z,-1.74
2023-03-03T00:53:25.360Z,-1.75
2023-03-03T00:54:25.337Z,-1.79
2023-03-03T00:55:25.314Z,-1.79
2023-03-03T00:56:25.293Z,-1.71
2023-03-03T00:57:25.274Z,-1.75
2023-03-03T00:58:25.252Z,-1.79
2023-03-03T00:59:25.242Z,-1.74
2023-03-03T01:00:25.224Z,-1.75
2023-03-03T01:01:25.245Z,-1.81
2023-03-03T01:02:25.202Z,-1.79
2023-03-03T01:03:25.172Z,-1.82
2023-03-03T01:04:25.135Z,-1.90
2023-03-03T01:05:25.118Z,-1.84
2023-03-03T01:06:25.096Z,-1.93
2023-03-03T01:07:25.070Z,-1.92
2023-03-03T01:08:25.054Z,-1.84
2023-03-03T01:09:25.030Z,-1.94
2023-03-03T01:10:25.010Z,-1.92
2023-03-03T01:11:24.991Z,-1.81
2023-03-03T01:12:24.972Z,-1.87
2023-03-03T01:13:24.955Z,-1.76
2023-03-03T01:14:24.957Z,-1.78
2023-03-03T04:52:41.492Z,-3.02
2023-03-03T04:53:21.224Z,-3.04
2023-03-03T04:54:21.211Z,-3.02
2023-03-03T04:55:21.238Z,-3.09
2023-03-03T04:56:21.249Z,-3.02
2023-03-03T04:57:21.162Z,-3.15
2023-03-03T04:58:21.142Z,-3.07
2023-03-03T04:59:21.168Z,-3.02
2023-03-03T05:00:21.145Z,-3.07
2023-03-03T05:01:21.069Z,-3.07
2023-03-03T05:02:21.084Z,-3.14
2023-03-03T05:03:21.007Z,-3.14
2023-03-03T05:04:21.025Z,-3.11
2023-03-03T05:05:20.993Z,-3.09
2023-03-03T05:06:20.980Z,-3.14
2023-03-03T05:07:20.938Z,-3.08
2023-03-03T05:08:20.909Z,-3.08
2023-03-03T05:09:20.917Z,-3.11
2023-03-03T05:10:20.864Z,-3.17
2023-03-03T05:11:20.845Z,-3.17
2023-03-03T05:12:20.814Z,-3.20
2023-03-03T05:13:20.798Z,-3.23
2023-03-03T05:14:20.821Z,-3.27
2023-03-03T05:15:20.748Z,-3.25
2023-03-03T05:16:20.744Z,-3.29
2023-03-03T05:17:20.718Z,-3.32
2023-03-03T05:18:20.696Z,-3.33
2023-03-03T05:19:20.665Z,-3.29
2023-03-03T05:20:20.653Z,-3.25
2023-03-03T05:21:20.620Z,-3.22
2023-03-03T05:22:20.603Z,-3.15
2023-03-03T05:23:20.587Z,-3.20
2023-03-03T05:24:20.563Z,-3.22
2023-03-03T05:25:20.542Z,-3.27
2023-03-03T05:26:20.515Z,-3.26
2023-03-03T05:27:20.520Z,-3.29
2023-03-03T05:28:20.506Z,-3.29
2023-03-03T05:29:20.454Z,-3.30
2023-03-03T05:30:20.477Z,-3.19
2023-03-03T05:31:20.440Z,-3.19
2023-03-03T05:32:20.464Z,-3.23
2023-03-03T05:33:20.365Z,-3.36
2023-03-03T05:34:20.373Z,-3.23
2023-03-03T05:35:20.382Z,-3.26
2023-03-03T05:36:20.307Z,-3.25
2023-03-03T05:37:20.298Z,-3.23
2023-03-03T05:38:20.270Z,-3.29
2023-03-03T05:39:20.248Z,-3.29
2023-03-03T05:40:20.219Z,-3.30
2023-03-03T05:41:20.235Z,-3.26
2023-03-03T05:42:20.347Z,-3.32
2023-03-03T05:43:20.157Z,-3.29
2023-03-03T05:44:20.820Z,-3.30
2023-03-03T05:45:20.119Z,-3.40
2023-03-03T05:46:20.176Z,-3.41
2023-03-03T05:47:20.072Z,-3.36
2023-03-03T05:48:20.048Z,-3.43
2023-03-03T05:49:20.035Z,-3.48
2023-03-03T05:50:20.010Z,-3.51
2023-03-03T05:51:20.002Z,-3.53
2023-03-03T05:52:19.968Z,-3.43
2023-03-03T05:53:19.963Z,-3.46
2023-03-03T05:54:19.962Z,-3.40
2023-03-03T05:55:19.900Z,-3.43
2023-03-03T05:56:19.926Z,-3.48
2023-03-03T05:57:19.859Z,-3.38
2023-03-03T05:58:19.839Z,-3.41
2023-03-03T05:59:19.818Z,-3.30
2023-03-03T06:00:19.828Z,-3.43
2023-03-03T06:01:19.776Z,-3.43
2023-03-03T06:02:19.756Z,-3.37
2023-03-03T06:03:19.773Z,-3.47
2023-03-03T06:04:19.745Z,-3.47
2023-03-03T06:05:19.694Z,-3.46
2023-03-03T06:06:19.672Z,-3.47
2023-03-03T06:07:19.662Z,-3.44
2023-03-03T06:08:19.632Z,-3.47
2023-03-03T06:09:19.610Z,-3.51
2023-03-03T06:10:19.587Z,-3.44
2023-03-03T06:11:19.564Z,-3.41
2023-03-03T06:12:19.547Z,-3.27
2023-03-03T06:13:19.532Z,-3.41
2023-03-03T06:14:19.518Z,-3.38
2023-03-03T06:15:19.600Z,-3.36
2023-03-03T06:16:19.554Z,-3.30
2023-03-03T06:17:19.438Z,-3.23
2023-03-03T06:18:19.426Z,-3.17
2023-03-03T06:19:19.395Z,-3.19
2023-03-03T06:20:19.388Z,-3.11
2023-03-03T06:21:19.352Z,-3.09
2023-03-03T06:22:19.335Z,-3.14
2023-03-03T06:23:19.308Z,-3.04
2023-03-03T06:24:19.295Z,-3.01
2023-03-03T06:25:19.290Z,-3.04
2023-03-03T06:26:19.250Z,-3.04
2023-03-03T06:27:19.225Z,-2.99
2023-03-03T06:28:19.217Z,-3.04
2023-03-03T06:29:19.190Z,-2.94
2023-03-03T06:30:19.676Z,-2.87
2023-03-03T06:31:19.581Z,-2.87
2023-03-03T06:32:19.156Z,-2.83
2023-03-03T06:33:19.098Z,-2.86
2023-03-03T06:34:19.073Z,-2.86
2023-03-03T06:35:19.186Z,-2.76
2023-03-03T06:36:19.033Z,-2.78
2023-03-03T06:37:19.008Z,-2.84
2023-03-03T06:38:19.009Z,-2.76
2023-03-03T06:39:18.978Z,-2.73
2023-03-03T06:40:18.946Z,-2.62
2023-03-03T06:41:18.935Z,-2.62
2023-03-03T06:42:18.905Z,-2.66
2023-03-03T06:43:18.895Z,-2.65
2023-03-03T06:44:18.871Z,-2.51
2023-03-03T06:45:18.864Z,-2.50
2023-03-03T06:46:18.833Z,-2.39
2023-03-03T06:47:18.806Z,-2.36
2023-03-03T06:48:18.787Z,-2.32
2023-03-03T06:49:18.769Z,-2.18
2023-03-03T06:50:18.736Z,-2.20
2023-03-03T06:51:18.737Z,-2.22
2023-03-03T06:52:18.692Z,-2.07
2023-03-03T06:53:18.680Z,-2.11
2023-03-03T06:54:18.666Z,-1.99
2023-03-03T06:55:18.644Z,-1.92
2023-03-03T06:56:18.620Z,-1.90
2023-03-03T06:57:18.586Z,-1.81
2023-03-03T06:58:18.578Z,-1.74
2023-03-03T06:59:18.543Z,-1.68
2023-03-03T07:00:18.538Z,-1.66
2023-03-03T07:01:18.534Z,-1.58
2023-03-03T07:02:18.490Z,-1.60
2023-03-03T07:03:18.476Z,-1.51
2023-03-03T07:04:18.461Z,-1.43
2023-03-03T07:05:18.450Z,-1.40
2023-03-03T07:06:18.419Z,-1.42
2023-03-03T07:07:18.389Z,-1.33
2023-03-03T07:08:18.375Z,-1.18
2023-03-03T07:09:18.361Z,-1.12
2023-03-03T07:10:18.329Z,-1.01
2023-03-03T07:11:18.320Z,-0.82
2023-03-03T07:12:18.290Z,-0.80
2023-03-03T07:13:18.276Z,-0.60
2023-03-03T07:14:18.251Z,-0.36
2023-03-03T07:15:18.243Z,-0.09
2023-03-03T07:16:18.235Z,0.05
2023-03-03T07:17:25.419Z,0.23
2023-03-03T07:19:22.173Z,0.66
2023-03-03T07:20:22.124Z,0.85
2023-03-03T07:22:26.145Z,0.96
2023-03-03T07:23:26.063Z,1.09
2023-03-03T07:25:30.052Z,1.30
2023-03-03T07:26:29.996Z,1.45
2023-03-03T07:28:22.902Z,1.66
2023-03-03T07:29:22.864Z,1.79
2023-03-03T07:30:22.842Z,1.93
2023-03-03T07:31:22.840Z,2.08
2023-03-03T07:32:22.828Z,2.15
2023-03-03T07:33:22.782Z,2.26
2023-03-03T07:34:22.766Z,2.46
2023-03-03T07:35:22.780Z,2.51
2023-03-03T07:36:22.723Z,2.65
2023-03-03T07:37:22.704Z,2.76
2023-03-03T07:38:22.684Z,2.79
2023-03-03T07:39:22.664Z,2.83
2023-03-03T07:40:22.646Z,2.87
2023-03-03T07:41:22.640Z,2.94
2023-03-03T07:42:22.611Z,3.01
2023-03-03T07:43:22.589Z,3.03
2023-03-03T07:44:22.574Z,3.01
2023-03-03T07:45:22.577Z,3.06
2023-03-03T07:46:22.560Z,3.12
2023-03-03T07:47:22.515Z,3.16
2023-03-03T07:48:22.500Z,3.31
2023-03-03T07:49:22.476Z,3.30
2023-03-03T07:50:22.459Z,3.40
2023-03-03T07:51:22.452Z,3.50
2023-03-03T07:52:22.427Z,3.68
2023-03-03T07:53:22.402Z,3.70
2023-03-03T07:54:22.435Z,3.70
2023-03-03T07:55:22.362Z,3.81
2023-03-03T07:56:22.344Z,3.96
2023-03-03T07:57:22.329Z,4.07
2023-03-03T07:58:22.303Z,4.10
2023-03-03T07:59:22.302Z,4.20
2023-03-03T08:00:22.298Z,4.21
2023-03-03T08:01:22.253Z,4.45
2023-03-03T08:02:22.229Z,4.57
2023-03-03T08:03:22.211Z,4.60
2023-03-03T08:04:22.322Z,4.79
2023-03-03T08:05:22.284Z,4.95
2023-03-03T08:06:22.154Z,5.22
2023-03-03T08:07:22.153Z,5.33
2023-03-03T08:08:22.128Z,5.43
2023-03-03T08:09:22.103Z,5.52
2023-03-03T08:10:22.093Z,5.83
2023-03-03T08:11:22.065Z,5.95
2023-03-03T08:12:22.040Z,6.15
2023-03-03T08:13:22.044Z,6.02
2023-03-03T08:14:22.000Z,6.05
2023-03-03T08:15:21.987Z,6.05
2023-03-03T08:16:22.017Z,6.17
2023-03-03T08:17:21.945Z,6.07
2023-03-03T08:18:21.926Z,6.10
2023-03-03T08:19:21.907Z,6.06
2023-03-03T08:20:21.889Z,6.15
2023-03-03T08:21:21.878Z,6.31
2023-03-03T08:22:21.849Z,6.20
2023-03-03T08:23:21.855Z,6.25
2023-03-03T08:24:21.822Z,6.25
2023-03-03T08:25:21.794Z,5.95
2023-03-03T08:26:21.796Z,5.79
2023-03-03T08:27:21.757Z,5.80
2023-03-03T08:28:21.738Z,5.97
2023-03-03T08:29:21.720Z,5.92
2023-03-03T08:30:21.702Z,5.94
2023-03-03T08:31:38.230Z,5.91
2023-03-03T08:32:21.772Z,5.94
2023-03-03T08:33:21.649Z,5.92
2023-03-03T08:34:21.631Z,5.94
2023-03-03T08:35:21.672Z,6.29
2023-03-03T08:36:21.618Z,6.41
2023-03-03T08:37:21.590Z,6.60
2023-03-03T08:38:21.557Z,6.70
2023-03-03T08:39:21.540Z,6.90
2023-03-03T08:40:21.540Z,7.05
2023-03-03T08:41:21.554Z,7.31
2023-03-03T08:42:21.515Z,7.62
2023-03-03T08:43:21.497Z,7.99
2023-03-03T08:44:21.458Z,8.06
2023-03-03T08:45:21.435Z,7.98
2023-03-03T08:46:21.461Z,7.87
2023-03-03T08:47:21.403Z,7.74
2023-03-03T08:48:21.393Z,7.81
2023-03-03T08:49:21.366Z,7.95
2023-03-03T08:50:21.350Z,7.99
2023-03-03T08:51:21.344Z,8.09
2023-03-03T08:52:21.320Z,8.27
2023-03-03T08:53:21.304Z,8.57
2023-03-03T08:54:21.290Z,9.27
2023-03-03T08:55:21.262Z,9.85
2023-03-03T08:56:21.247Z,10.38
2023-03-03T08:57:21.234Z,10.94
2023-03-03T08:58:23.820Z,11.43
2023-03-03T08:59:21.198Z,11.93
2023-03-03T09:00:21.201Z,12.50
2023-03-03T09:01:21.208Z,12.80
2023-03-03T09:02:21.150Z,13.16
2023-03-03T09:03:21.144Z,13.67
2023-03-03T09:04:21.143Z,14.52
2023-03-03T09:05:21.116Z,15.47
2023-03-03T09:06:21.088Z,15.98
2023-03-03T09:07:21.099Z,15.54
2023-03-03T09:08:21.056Z,14.82
2023-03-03T09:09:21.049Z,14.56
2023-03-03T09:10:21.026Z,14.34
2023-03-03T09:11:21.016Z,14.08
2023-03-03T09:12:21.008Z,13.86
2023-03-03T09:13:20.984Z,14.03
2023-03-03T09:14:20.980Z,14.15
2023-03-03T09:15:20.962Z,14.16
2023-03-03T09:16:20.986Z,14.03
2023-03-03T09:17:20.926Z,14.04
2023-03-03T09:18:20.908Z,14.19
2023-03-03T09:19:20.892Z,14.22
2023-03-03T09:20:20.885Z,14.26
2023-03-03T09:21:20.864Z,14.45
2023-03-03T09:22:20.862Z,14.38
2023-03-03T09:23:20.838Z,14.07
2023-03-03T09:24:20.825Z,13.91
2023-03-03T09:25:20.811Z,13.93
2023-03-03T09:26:20.796Z,13.70
2023-03-03T09:27:20.786Z,13.57
2023-03-03T09:28:20.766Z,13.31
2023-03-03T09:29:20.758Z,13.23
2023-03-03T09:30:20.737Z,13.21
2023-03-03T09:31:20.748Z,13.20
2023-03-03T09:32:20.730Z,13.39
2023-03-03T09:33:20.692Z,13.45
2023-03-03T09:34:20.685Z,13.40
2023-03-03T09:35:20.682Z,13.37
2023-03-03T09:36:20.646Z,13.45
2023-03-03T09:37:20.644Z,13.55
2023-03-03T09:38:20.624Z,13.67
2023-03-03T09:39:20.624Z,13.76
2023-03-03T09:40:20.599Z,14.04
2023-03-03T09:41:20.585Z,15.27
2023-03-03T09:42:20.576Z,17.05
2023-03-03T09:43:20.554Z,18.36
2023-03-03T09:44:20.540Z,19.42
2023-03-03T09:45:20.529Z,19.75
2023-03-03T09:46:20.531Z,20.19
2023-03-03T09:47:22.326Z,20.22
2023-03-03T09:48:20.493Z,20.11
2023-03-03T09:49:20.471Z,20.00
2023-03-03T09:50:20.469Z,19.93
2023-03-03T09:51:20.448Z,20.07
2023-03-03T09:52:20.437Z,20.07
2023-03-03T09:53:20.427Z,20.03
2023-03-03T09:54:20.417Z,19.87
2023-03-03T09:55:20.406Z,19.63
2023-03-03T09:56:20.399Z,19.59
2023-03-03T09:57:20.396Z,19.85
2023-03-03T09:58:20.375Z,20.63
2023-03-03T09:59:20.368Z,21.84
2023-03-03T10:00:20.365Z,22.84
2023-03-03T10:01:20.340Z,23.94
2023-03-03T10:02:20.328Z,24.37
2023-03-03T10:03:20.343Z,24.10
2023-03-03T10:04:20.343Z,23.63
2023-03-03T10:05:20.325Z,23.44
2023-03-03T10:06:20.304Z,23.18
2023-03-03T10:07:20.285Z,22.59
2023-03-03T10:08:20.278Z,21.80
2023-03-03T10:09:20.271Z,21.56
2023-03-03T10:10:20.261Z,21.44
2023-03-03T10:11:20.285Z,21.41
2023-03-03T10:12:20.246Z,21.65
2023-03-03T10:13:20.234Z,21.92
2023-03-03T10:14:20.230Z,22.25
2023-03-03T10:15:20.234Z,22.46
2023-03-03T10:16:20.269Z,22.67
2023-03-03T10:17:20.204Z,22.74
2023-03-03T10:18:20.200Z,22.76
2023-03-03T10:19:20.189Z,22.99
2023-03-03T10:20:20.188Z,23.37
2023-03-03T10:21:20.177Z,23.79
2023-03-03T10:22:20.168Z,24.10
2023-03-03T10:23:20.161Z,24.25
2023-03-03T10:24:20.155Z,24.41
2023-03-03T10:25:20.174Z,24.61
2023-03-03T10:26:20.140Z,24.68
2023-03-03T10:27:20.140Z,24.41
2023-03-03T10:28:20.134Z,24.13
2023-03-03T10:29:22.860Z,24.06
2023-03-03T10:30:33.227Z,24.06
2023-03-03T10:31:20.759Z,24.19
2023-03-03T10:32:20.838Z,24.43
2023-03-03T10:33:20.290Z,24.75
2023-03-03T10:34:20.095Z,24.77
2023-03-03T10:35:20.613Z,24.55
2023-03-03T10:36:20.159Z,24.61
2023-03-03T10:37:20.089Z,24.59
2023-03-03T10:38:20.088Z,24.41
2023-03-03T10:39:20.075Z,24.46
2023-03-03T10:40:20.096Z,24.53
2023-03-03T10:41:20.069Z,24.74
2023-03-03T10:42:20.059Z,24.75
2023-03-03T10:43:31.042Z,24.85
2023-03-03T10:44:20.052Z,24.99
2023-03-03T10:45:20.048Z,25.04
2023-03-03T10:46:20.142Z,25.03
2023-03-03T10:47:20.042Z,25.25
2023-03-03T10:48:20.037Z,25.01
2023-03-03T10:49:20.037Z,25.21
2023-03-03T10:50:20.089Z,25.36
2023-03-03T10:51:20.022Z,25.80
2023-03-03T10:52:20.043Z,25.61
2023-03-03T10:53:20.019Z,25.51
2023-03-03T10:54:20.008Z,25.61
2023-03-03T10:55:20.015Z,25.80
2023-03-03T10:56:20.009Z,26.01
2023-03-03T10:57:20.003Z,26.45
2023-03-03T10:58:20.056Z,26.85
2023-03-03T10:59:20.003Z,27.23
2023-03-03T11:00:20.067Z,27.25
2023-03-03T11:01:21.018Z,27.44
2023-03-03T11:02:19.989Z,27.75
2023-03-03T11:03:19.980Z,27.78
2023-03-03T11:04:20.031Z,27.68
2023-03-03T11:05:19.977Z,27.53
2023-03-03T11:06:19.973Z,27.63
2023-03-03T11:07:19.976Z,27.71
2023-03-03T11:08:19.967Z,28.01
2023-03-03T11:09:19.962Z,27.91
2023-03-03T11:10:20.020Z,27.61
2023-03-03T11:11:20.221Z,27.53
2023-03-03T11:12:22.431Z,27.50
2023-03-03T11:13:19.956Z,27.50
2023-03-03T11:14:19.949Z,27.37
2023-03-03T11:15:19.952Z,27.58
2023-03-03T11:16:19.962Z,27.68
2023-03-03T11:17:19.946Z,27.91
2023-03-03T11:18:22.295Z,27.52
2023-03-03T11:19:19.940Z,27.37
2023-03-03T11:20:19.953Z,27.30
2023-03-03T11:21:19.943Z,26.98
2023-03-03T11:22:19.940Z,26.93
2023-03-03T11:23:19.934Z,26.96
2023-03-03T11:24:19.931Z,27.04
2023-03-03T11:25:19.936Z,27.19
2023-03-03T11:26:19.943Z,27.58
2023-03-03T11:27:19.928Z,27.66
2023-03-03T11:28:19.935Z,27.85
2023-03-03T11:29:19.928Z,27.85
2023-03-03T11:30:19.927Z,27.73
2023-03-03T11:31:20.036Z,28.55
2023-03-03T11:32:19.960Z,28.77
2023-03-03T11:33:19.925Z,29.31
2023-03-03T11:34:19.924Z,29.58
2023-03-03T11:35:20.016Z,30.59
2023-03-03T11:36:19.922Z,31.39
2023-03-03T11:37:19.916Z,32.05
2023-03-03T11:38:19.917Z,32.63
2023-03-03T11:39:19.911Z,33.12
2023-03-03T11:40:19.911Z,33.82
2023-03-03T11:41:19.908Z,34.14
2023-03-03T11:42:21.454Z,34.51
2023-03-03T11:43:35.396Z,35.26
2023-03-03T11:44:19.903Z,35.37
2023-03-03T11:45:19.928Z,35.93
2023-03-03T11:46:19.949Z,36.54
2023-03-03T11:47:19.905Z,37.06
2023-03-03T11:48:19.904Z,37.31
2023-03-03T11:49:19.903Z,37.34
2023-03-03T11:50:19.895Z,37.92
2023-03-03T11:51:19.906Z,38.29
2023-03-03T11:52:19.899Z,38.69
2023-03-03T11:53:19.917Z,38.84
2023-03-03T11:54:19.892Z,39.22
2023-03-03T11:55:22.547Z,39.61
2023-03-03T11:56:19.892Z,40.17
2023-03-03T11:57:19.891Z,40.17
2023-03-03T11:58:19.889Z,40.52
2023-03-03T11:59:19.888Z,40.54
2023-03-03T12:00:19.900Z,40.59
2023-03-03T12:01:19.901Z,40.57
2023-03-03T12:02:19.972Z,40.23
2023-03-03T12:03:19.886Z,40.67
2023-03-03T12:04:19.886Z,41.10
2023-03-03T12:05:19.902Z,41.23
2023-03-03T12:06:19.889Z,41.12
2023-03-03T12:07:20.123Z,40.76
2023-03-03T12:08:19.914Z,40.96
2023-03-03T12:09:19.880Z,40.81
2023-03-03T12:10:19.887Z,41.18
2023-03-03T12:11:19.875Z,41.49
2023-03-03T12:12:19.880Z,41.58
2023-03-03T12:13:19.876Z,41.64
2023-03-03T12:14:19.880Z,41.12
2023-03-03T12:15:19.872Z,41.00
2023-03-03T12:16:19.919Z,40.95
2023-03-03T12:17:19.881Z,40.96
2023-03-03T12:18:19.861Z,40.59
2023-03-03T12:19:19.861Z,39.80
2023-03-03T12:20:19.859Z,39.73
2023-03-03T12:21:19.853Z,39.07
2023-03-03T12:22:19.870Z,39.07
2023-03-03T12:23:19.876Z,39.59
2023-03-03T12:24:19.873Z,39.37
2023-03-03T12:25:19.879Z,39.52
2023-03-03T12:26:19.867Z,39.59
2023-03-03T12:27:19.870Z,39.73
2023-03-03T12:28:19.861Z,39.94
2023-03-03T12:29:19.861Z,40.02
2023-03-03T12:30:19.859Z,40.28
2023-03-03T12:31:19.865Z,39.97
2023-03-03T12:32:19.918Z,39.70
2023-03-03T12:33:19.848Z,39.73
2023-03-03T12:34:19.858Z,40.04
2023-03-03T12:35:19.896Z,39.86
2023-03-03T12:36:19.837Z,39.49
2023-03-03T12:37:19.865Z,39.51
2023-03-03T12:38:19.834Z,39.67
2023-03-03T12:39:33.712Z,39.49
2023-03-03T12:40:19.829Z,38.92
2023-03-03T12:41:19.830Z,39.25
2023-03-03T12:42:19.814Z,39.78
2023-03-03T12:43:19.817Z,40.10
2023-03-03T12:44:19.809Z,39.94
2023-03-03T12:45:19.812Z,39.93
2023-03-03T12:46:19.870Z,40.08
2023-03-03T12:47:22.238Z,39.86
2023-03-03T12:48:19.789Z,39.46
2023-03-03T12:49:19.786Z,38.53
2023-03-03T12:50:19.788Z,38.32
2023-03-03T12:51:19.788Z,38.25
2023-03-03T12:52:19.779Z,38.50
2023-03-03T12:53:19.778Z,38.42
2023-03-03T12:54:19.763Z,38.76
2023-03-03T12:55:19.781Z,39.03
2023-03-03T12:56:19.763Z,39.39
2023-03-03T12:57:19.753Z,39.45
2023-03-03T12:58:19.750Z,39.60
2023-03-03T12:59:19.766Z,39.60
2023-03-03T13:00:19.762Z,39.82
2023-03-03T13:01:19.749Z,39.73
2023-03-03T13:02:19.744Z,39.27
2023-03-03T13:03:19.747Z,38.85
2023-03-03T13:04:19.795Z,38.72
2023-03-03T13:05:19.722Z,38.77
2023-03-03T13:06:19.706Z,38.72
2023-03-03T13:07:19.787Z,37.73
2023-03-03T13:08:19.740Z,37.71
2023-03-03T13:09:19.756Z,37.94
2023-03-03T13:10:19.690Z,38.35
2023-03-03T13:11:19.694Z,38.50
2023-03-03T13:12:19.678Z,38.22
2023-03-03T13:13:19.678Z,38.35
2023-03-03T13:14:19.664Z,38.47
2023-03-03T13:15:21.340Z,38.54
2023-03-03T13:16:22.143Z,38.48
2023-03-03T13:17:19.757Z,38.72
2023-03-03T13:18:19.652Z,38.68
2023-03-03T13:19:19.641Z,38.47
2023-03-03T13:20:19.641Z,38.34
2023-03-03T13:21:19.632Z,38.56
2023-03-03T13:22:19.633Z,38.16
2023-03-03T13:23:19.623Z,38.01
2023-03-03T13:24:19.768Z,38.01
2023-03-03T13:25:19.669Z,37.91
2023-03-03T13:26:19.653Z,36.96
2023-03-03T13:27:19.622Z,36.26
2023-03-03T13:28:19.600Z,36.00
2023-03-03T13:29:19.617Z,35.76
2023-03-03T13:30:19.594Z,35.63
2023-03-03T13:31:19.617Z,34.86
2023-03-03T13:32:19.607Z,34.44
2023-03-03T13:33:19.570Z,34.29
2023-03-03T13:34:19.559Z,34.50
2023-03-03T13:35:19.597Z,33.88
2023-03-03T13:36:19.570Z,32.67
2023-03-03T13:37:19.539Z,32.12
2023-03-03T13:38:19.543Z,31.02
2023-03-03T13:39:19.533Z,29.31
2023-03-03T13:40:19.522Z,27.38
2023-03-03T13:41:19.512Z,25.56
2023-03-03T13:42:19.502Z,24.28
2023-03-03T13:43:19.495Z,22.98
2023-03-03T13:44:19.492Z,21.78
2023-03-03T13:45:19.478Z,20.70
2023-03-03T13:46:19.475Z,19.89
2023-03-03T13:47:19.469Z,19.11
2023-03-03T13:48:19.454Z,18.51
2023-03-03T13:49:19.444Z,18.09
2023-03-03T13:50:19.432Z,17.84
2023-03-03T13:51:19.428Z,17.56
2023-03-03T13:52:19.439Z,17.31
2023-03-03T13:53:19.400Z,17.09
2023-03-03T13:54:19.397Z,17.07
2023-03-03T13:55:21.532Z,16.82
2023-03-03T13:56:19.384Z,16.68
2023-03-03T13:57:19.365Z,16.58
2023-03-03T13:58:19.354Z,16.40
2023-03-03T13:59:19.339Z,16.13
2023-03-03T14:00:19.353Z,15.83
2023-03-03T14:01:19.356Z,15.94
2023-03-03T14:02:19.312Z,15.87
2023-03-03T14:03:19.294Z,15.87
2023-03-03T14:04:19.494Z,15.69
2023-03-03T14:05:19.272Z,15.63
2023-03-03T14:06:19.257Z,15.57
2023-03-03T14:07:19.347Z,15.44
2023-03-03T14:08:19.240Z,15.35
2023-03-03T14:09:19.222Z,15.18
2023-03-03T14:10:19.222Z,15.18
2023-03-03T14:11:19.211Z,15.27
2023-03-03T14:12:19.197Z,15.27
2023-03-03T14:13:19.391Z,15.25
2023-03-03T14:14:19.171Z,15.25
2023-03-03T14:15:19.153Z,15.18
2023-03-03T14:16:19.200Z,15.22
2023-03-03T14:17:21.315Z,15.08
2023-03-03T14:18:19.128Z,15.04
2023-03-03T14:19:19.104Z,15.07
2023-03-03T14:20:19.124Z,15.07
2023-03-03T14:21:19.734Z,15.04
2023-03-03T14:22:19.381Z,15.07
2023-03-03T14:23:19.062Z,14.97
2023-03-03T14:24:19.041Z,14.85
2023-03-03T14:25:19.041Z,14.73
2023-03-03T14:26:19.034Z,14.61
2023-03-03T14:27:19.057Z,14.59
2023-03-03T14:28:18.996Z,14.48
2023-03-03T14:29:18.979Z,14.51
2023-03-03T14:30:18.973Z,14.33
2023-03-03T14:31:19.106Z,14.33
2023-03-03T14:32:18.968Z,14.19
2023-03-03T14:33:18.925Z,14.15
2023-03-03T14:34:18.926Z,14.13
2023-03-03T14:35:18.904Z,14.05
2023-03-03T14:36:18.897Z,13.87
2023-03-03T14:37:18.887Z,13.86
2023-03-03T14:38:18.872Z,13.71
2023-03-03T14:39:18.847Z,13.67
2023-03-03T14:40:18.840Z,13.57
2023-03-03T14:41:18.821Z,13.60
2023-03-03T14:42:18.811Z,13.47
2023-03-03T14:43:18.808Z,13.49
2023-03-03T14:44:18.784Z,13.50
2023-03-03T14:45:29.060Z,13.43
2023-03-03T14:46:18.785Z,13.46
2023-03-03T14:47:18.743Z,13.45
2023-03-03T14:48:18.735Z,13.39
2023-03-03T14:49:18.732Z,13.27
2023-03-03T14:50:18.710Z,13.21
2023-03-03T14:51:18.690Z,13.12
2023-03-03T14:52:18.694Z,13.16
2023-03-03T14:53:18.666Z,13.11
2023-03-03T14:54:18.656Z,13.05
2023-03-03T14:55:18.636Z,12.98
2023-03-03T14:56:18.630Z,12.93
2023-03-03T14:57:18.612Z,12.88
2023-03-03T14:58:18.609Z,12.80
2023-03-03T14:59:18.585Z,12.78
2023-03-03T15:00:18.572Z,12.75
2023-03-03T15:01:18.612Z,12.63
2023-03-03T15:02:18.554Z,12.55
2023-03-03T15:03:18.553Z,12.50
2023-03-03T15:04:18.522Z,12.48
2023-03-03T15:05:18.584Z,12.36
2023-03-03T15:06:18.495Z,12.28
2023-03-03T15:07:18.485Z,12.23
2023-03-03T15:08:18.597Z,12.12
2023-03-03T15:09:18.461Z,12.03
2023-03-03T15:10:18.439Z,11.95
2023-03-03T15:11:18.422Z,11.78
2023-03-03T15:12:18.410Z,11.73
2023-03-03T15:13:18.399Z,11.62
2023-03-03T15:14:18.380Z,11.62
2023-03-03T15:15:18.381Z,11.52
2023-03-03T15:16:18.421Z,11.49
2023-03-03T15:17:18.352Z,11.53
2023-03-03T15:18:18.337Z,11.35
2023-03-03T15:19:18.311Z,11.35
2023-03-03T15:20:18.301Z,11.26
2023-03-03T15:21:18.284Z,11.27
2023-03-03T15:22:18.281Z,11.19
2023-03-03T15:23:18.255Z,11.13
2023-03-03T15:24:18.272Z,11.08
2023-03-03T15:25:20.975Z,11.13
2023-03-03T15:26:18.214Z,11.01
2023-03-03T15:27:18.198Z,10.86
2023-03-03T15:28:18.252Z,10.87
2023-03-03T15:29:18.168Z,10.80
2023-03-03T15:30:18.152Z,10.67
2023-03-03T15:31:18.223Z,10.67
2023-03-03T15:32:18.181Z,10.45
2023-03-03T15:33:18.170Z,10.53
2023-03-03T15:34:18.096Z,10.34
2023-03-03T15:35:18.080Z,10.15
2023-03-03T15:36:18.065Z,10.13
2023-03-03T15:37:18.057Z,10.06
2023-03-03T15:38:18.037Z,10.03
2023-03-03T15:39:18.049Z,9.99
2023-03-03T15:40:18.056Z,9.92
2023-03-03T15:41:17.997Z,9.90
2023-03-03T15:42:17.984Z,9.77
2023-03-03T15:43:17.963Z,9.82
2023-03-03T15:44:17.950Z,9.67
2023-03-03T15:45:17.926Z,9.70
2023-03-03T15:46:17.946Z,9.70
2023-03-03T15:47:17.902Z,9.70
2023-03-03T15:48:17.890Z,9.55
2023-03-03T15:49:17.869Z,9.69
2023-03-03T15:50:17.855Z,9.62
2023-03-03T15:51:17.844Z,9.51
2023-03-03T15:52:17.826Z,9.44
2023-03-03T15:53:17.809Z,9.33
2023-03-03T15:54:17.801Z,9.34
2023-03-03T15:55:17.780Z,9.30
2023-03-03T15:56:17.770Z,9.15
2023-03-03T15:57:17.749Z,9.05
2023-03-03T15:58:17.737Z,8.99
2023-03-03T15:59:17.720Z,8.90
2023-03-03T16:00:17.705Z,8.87
2023-03-03T16:01:17.748Z,8.82
2023-03-03T16:02:17.658Z,8.72
2023-03-03T16:03:17.778Z,8.72
2023-03-03T16:04:17.625Z,8.53
2023-03-03T16:05:17.612Z,8.56
2023-03-03T16:06:17.600Z,8.50
2023-03-03T16:07:17.591Z,8.36
2023-03-03T16:08:17.578Z,8.34
2023-03-03T16:09:17.557Z,8.24
2023-03-03T16:10:17.564Z,8.18
2023-03-03T16:11:17.517Z,8.09
2023-03-03T16:12:17.505Z,8.11
2023-03-03T16:13:17.494Z,8.06
2023-03-03T16:14:17.471Z,7.96
2023-03-03T16:15:17.498Z,7.84
2023-03-03T16:16:17.518Z,7.74
2023-03-03T16:17:17.422Z,7.61
2023-03-03T16:18:17.427Z,7.64
2023-03-03T16:19:17.406Z,7.51
2023-03-03T16:20:17.378Z,7.61
2023-03-03T16:21:17.382Z,7.47
2023-03-03T16:22:17.347Z,7.51
2023-03-03T16:23:17.340Z,7.44
2023-03-03T16:24:17.340Z,7.26
2023-03-03T16:25:17.318Z,7.21
2023-03-03T16:26:17.295Z,7.14
2023-03-03T16:27:17.269Z,7.11
2023-03-03T16:28:17.256Z,7.01
2023-03-03T16:29:17.241Z,7.01
2023-03-03T16:30:17.224Z,7.00
2023-03-03T16:31:17.252Z,6.95
2023-03-03T16:32:17.225Z,6.86
2023-03-03T16:33:17.182Z,6.80
2023-03-03T16:34:17.167Z,6.82
2023-03-03T16:35:17.153Z,6.70
2023-03-03T16:36:17.135Z,6.60
2023-03-03T16:37:17.123Z,6.62
2023-03-03T16:38:17.103Z,6.54